createdAt,value
2019-02-07T00:00:13.416Z,1014.00
2019-02-07T00:01:13.409Z,1013.88
2019-02-07T00:02:13.428Z,1013.92
2019-02-07T00:03:13.383Z,1013.90
2019-02-07T00:04:13.376Z,1013.85
2019-02-07T00:05:13.367Z,1013.88
2019-02-07T00:06:13.353Z,1013.87
2019-02-07T00:07:13.365Z,1013.85
2019-02-07T00:08:13.329Z,1013.86
2019-02-07T00:09:13.319Z,1013.84
2019-02-07T00:10:13.312Z,1013.86
2019-02-07T00:11:13.298Z,1013.78
2019-02-07T00:12:13.305Z,1013.79
2019-02-07T00:13:13.278Z,1013.77
2019-02-07T00:14:13.266Z,1013.78
2019-02-07T00:15:13.255Z,1013.76
2019-02-07T00:16:13.255Z,1013.73
2019-02-07T00:17:13.249Z,1013.69
2019-02-07T00:18:13.227Z,1013.68
2019-02-07T00:19:13.216Z,1013.67
2019-02-07T00:20:13.203Z,1013.66
2019-02-07T00:21:13.195Z,1013.65
2019-02-07T00:22:13.198Z,1013.64
2019-02-07T00:23:13.173Z,1013.62
2019-02-07T00:24:13.163Z,1013.63
2019-02-07T00:25:13.156Z,1013.67
2019-02-07T00:26:13.147Z,1013.64
2019-02-07T00:27:13.157Z,1013.62
2019-02-07T00:28:13.118Z,1013.67
2019-02-07T00:29:13.115Z,1013.62
2019-02-07T00:30:13.107Z,1013.55
2019-02-07T00:31:13.087Z,1013.55
2019-02-07T00:32:13.135Z,1013.57
2019-02-07T00:33:13.079Z,1013.54
2019-02-07T00:34:13.063Z,1013.57
2019-02-07T00:35:13.052Z,1013.55
2019-02-07T00:36:13.056Z,1013.57
2019-02-07T00:37:13.057Z,1013.54
2019-02-07T00:38:13.019Z,1013.53
2019-02-07T00:39:13.015Z,1013.51
2019-02-07T00:40:12.997Z,1013.51
2019-02-07T00:41:12.993Z,1013.52
2019-02-07T00:42:12.979Z,1013.49
2019-02-07T00:43:12.980Z,1013.51
2019-02-07T00:44:12.967Z,1013.48
2019-02-07T00:45:12.951Z,1013.52
2019-02-07T00:46:12.953Z,1013.47
2019-02-07T00:47:12.927Z,1013.44
2019-02-07T00:48:12.939Z,1013.47
2019-02-07T00:49:12.912Z,1013.43
2019-02-07T00:50:12.899Z,1013.43
2019-02-07T00:51:12.896Z,1013.45
2019-02-07T00:52:12.879Z,1013.38
2019-02-07T00:53:12.900Z,1013.40
2019-02-07T00:54:12.858Z,1013.47
2019-02-07T00:55:12.850Z,1013.42
2019-02-07T00:56:12.839Z,1013.42
2019-02-07T00:57:12.830Z,1013.46
2019-02-07T00:58:12.828Z,1013.45
2019-02-07T00:59:12.824Z,1013.49
2019-02-07T01:00:12.800Z,1013.42
2019-02-07T01:01:12.794Z,1013.40
2019-02-07T01:02:12.781Z,1013.36
2019-02-07T01:03:12.764Z,1013.29
2019-02-07T01:04:12.769Z,1013.27
2019-02-07T01:05:12.753Z,1013.20
2019-02-07T01:06:12.739Z,1013.20
2019-02-07T01:07:12.730Z,1013.16
2019-02-07T01:08:12.804Z,1013.13
2019-02-07T01:09:12.760Z,1013.10
2019-02-07T01:10:12.699Z,1013.16
2019-02-07T01:11:12.686Z,1013.10
2019-02-07T01:12:12.675Z,1013.11
2019-02-07T01:13:12.684Z,1013.06
2019-02-07T01:14:12.659Z,1013.07
2019-02-07T01:15:12.668Z,1013.02
2019-02-07T01:16:12.641Z,1013.04
2019-02-07T01:17:12.627Z,1013.00
2019-02-07T01:18:12.618Z,1012.96
2019-02-07T01:19:12.605Z,1012.97
2019-02-07T01:20:12.625Z,1012.96
2019-02-07T01:21:12.584Z,1012.99
2019-02-07T01:22:12.582Z,1012.99
2019-02-07T01:23:12.564Z,1012.98
2019-02-07T01:24:12.554Z,1012.98
2019-02-07T01:25:12.544Z,1012.94
2019-02-07T01:26:12.549Z,1012.98
2019-02-07T01:27:12.524Z,1012.94
2019-02-07T01:28:12.510Z,1012.94
2019-02-07T01:29:12.509Z,1012.91
2019-02-07T01:30:12.493Z,1012.89
2019-02-07T01:31:12.498Z,1012.90
2019-02-07T01:32:12.475Z,1012.80
2019-02-07T01:33:12.460Z,1012.91
2019-02-07T01:34:12.450Z,1012.85
2019-02-07T01:35:12.441Z,1012.87
2019-02-07T01:36:12.444Z,1012.89
2019-02-07T01:37:12.415Z,1012.86
2019-02-07T01:38:12.416Z,1012.89
2019-02-07T01:39:12.396Z,1012.83
2019-02-07T01:40:12.386Z,1012.89
2019-02-07T01:41:12.404Z,1012.86
2019-02-07T01:42:12.367Z,1012.84
2019-02-07T01:43:12.356Z,1012.94
2019-02-07T01:44:12.345Z,1012.93
2019-02-07T01:45:13.355Z,1012.93
2019-02-07T01:46:12.328Z,1012.93
2019-02-07T01:47:12.338Z,1012.91
2019-02-07T01:48:12.305Z,1012.93
2019-02-07T01:49:12.294Z,1012.89
2019-02-07T01:50:12.296Z,1012.87
2019-02-07T01:51:12.274Z,1012.87
2019-02-07T01:52:12.283Z,1012.88
2019-02-07T01:53:12.274Z,1012.86
2019-02-07T01:54:12.251Z,1012.86
2019-02-07T01:55:12.231Z,1012.85
2019-02-07T01:56:12.226Z,1012.79
2019-02-07T01:57:12.241Z,1012.78
2019-02-07T01:58:12.197Z,1012.69
2019-02-07T01:59:12.187Z,1012.70
2019-02-07T02:00:12.180Z,1012.65
2019-02-07T02:01:12.174Z,1012.61
2019-02-07T02:02:12.156Z,1012.59
2019-02-07T02:03:12.164Z,1012.56
2019-02-07T02:04:12.137Z,1012.52
2019-02-07T02:05:12.127Z,1012.56
2019-02-07T02:06:12.116Z,1012.50
2019-02-07T02:07:12.106Z,1012.50
2019-02-07T02:08:12.112Z,1012.47
2019-02-07T02:09:12.084Z,1012.53
2019-02-07T02:10:12.074Z,1012.47
2019-02-07T02:11:12.066Z,1012.48
2019-02-07T02:12:12.052Z,1012.47
2019-02-07T02:13:12.059Z,1012.42
2019-02-07T02:14:12.034Z,1012.39
2019-02-07T02:15:12.018Z,1012.37
2019-02-07T02:16:12.012Z,1012.34
2019-02-07T02:17:12.006Z,1012.27
2019-02-07T02:18:12.004Z,1012.22
2019-02-07T02:19:11.982Z,1012.18
2019-02-07T02:20:11.971Z,1012.10
2019-02-07T02:21:11.956Z,1012.09
2019-02-07T02:22:11.947Z,1012.07
2019-02-07T02:23:11.967Z,1012.07
2019-02-07T02:24:11.928Z,1012.05
2019-02-07T02:25:11.920Z,1012.08
2019-02-07T02:26:11.904Z,1012.04
2019-02-07T02:27:11.897Z,1012.11
2019-02-07T02:28:11.884Z,1012.12
2019-02-07T02:29:11.887Z,1012.12
2019-02-07T02:30:11.862Z,1012.01
2019-02-07T02:31:11.854Z,1012.01
2019-02-07T02:32:11.844Z,1012.02
2019-02-07T02:33:11.838Z,1012.03
2019-02-07T02:34:11.835Z,1012.01
2019-02-07T02:35:11.813Z,1011.98
2019-02-07T02:36:11.796Z,1012.05
2019-02-07T02:37:11.788Z,1011.99
2019-02-07T02:38:11.782Z,1011.95
2019-02-07T02:39:11.803Z,1011.98
2019-02-07T02:40:11.768Z,1011.97
2019-02-07T02:41:11.756Z,1011.93
2019-02-07T02:42:11.739Z,1011.94
2019-02-07T02:43:11.735Z,1011.90
2019-02-07T02:44:11.721Z,1011.88
2019-02-07T02:45:11.729Z,1011.78
2019-02-07T02:46:11.694Z,1011.80
2019-02-07T02:47:11.684Z,1011.82
2019-02-07T02:48:11.681Z,1011.80
2019-02-07T02:49:11.663Z,1011.80
2019-02-07T02:50:11.671Z,1011.81
2019-02-07T02:51:11.650Z,1011.82
2019-02-07T02:52:11.638Z,1011.81
2019-02-07T02:53:11.628Z,1011.79
2019-02-07T02:54:11.610Z,1011.76
2019-02-07T02:55:11.623Z,1011.77
2019-02-07T02:56:11.589Z,1011.81
2019-02-07T02:57:11.580Z,1011.86
2019-02-07T02:58:11.568Z,1011.80
2019-02-07T02:59:11.565Z,1011.80
2019-02-07T03:00:11.572Z,1011.86
2019-02-07T03:01:11.538Z,1011.83
2019-02-07T03:02:11.530Z,1011.84
2019-02-07T03:03:11.518Z,1011.77
2019-02-07T03:04:11.506Z,1011.74
2019-02-07T03:05:11.519Z,1011.72
2019-02-07T03:06:11.488Z,1011.75
2019-02-07T03:07:11.475Z,1011.66
2019-02-07T03:08:11.468Z,1011.71
2019-02-07T03:09:11.452Z,1011.67
2019-02-07T03:10:11.446Z,1011.70
2019-02-07T03:11:11.452Z,1011.65
2019-02-07T03:12:11.423Z,1011.64
2019-02-07T03:13:11.414Z,1011.60
2019-02-07T03:14:11.403Z,1011.62
2019-02-07T03:15:11.393Z,1011.61
2019-02-07T03:16:11.402Z,1011.57
2019-02-07T03:17:11.373Z,1011.56
2019-02-07T03:18:11.365Z,1011.50
2019-02-07T03:19:11.350Z,1011.52
2019-02-07T03:20:11.339Z,1011.45
2019-02-07T03:21:11.351Z,1011.49
2019-02-07T03:22:11.316Z,1011.50
2019-02-07T03:23:11.311Z,1011.51
2019-02-07T03:24:11.296Z,1011.47
2019-02-07T03:25:11.296Z,1011.45
2019-02-07T03:26:11.292Z,1011.44
2019-02-07T03:27:11.265Z,1011.39
2019-02-07T03:28:11.256Z,1011.34
2019-02-07T03:29:11.262Z,1011.33
2019-02-07T03:30:11.240Z,1011.37
2019-02-07T03:31:11.244Z,1011.33
2019-02-07T03:32:11.219Z,1011.36
2019-02-07T03:33:11.204Z,1011.33
2019-02-07T03:34:11.201Z,1011.34
2019-02-07T03:35:11.184Z,1011.32
2019-02-07T03:36:11.191Z,1011.29
2019-02-07T03:37:11.160Z,1011.21
2019-02-07T03:38:11.151Z,1011.21
2019-02-07T03:39:11.146Z,1011.25
2019-02-07T03:40:11.128Z,1011.22
2019-02-07T03:41:11.270Z,1011.22
2019-02-07T03:42:11.118Z,1011.23
2019-02-07T03:43:11.094Z,1011.23
2019-02-07T03:44:11.089Z,1011.21
2019-02-07T03:45:11.085Z,1011.20
2019-02-07T03:46:11.086Z,1011.17
2019-02-07T03:47:11.122Z,1011.24
2019-02-07T03:48:11.048Z,1011.23
2019-02-07T03:49:11.035Z,1011.21
2019-02-07T03:50:11.025Z,1011.20
2019-02-07T03:51:11.029Z,1011.19
2019-02-07T03:52:11.002Z,1011.13
2019-02-07T03:53:10.996Z,1011.12
2019-02-07T03:54:10.985Z,1011.12
2019-02-07T03:55:10.974Z,1011.16
2019-02-07T03:56:10.997Z,1011.18
2019-02-07T03:57:10.952Z,1011.13
2019-02-07T03:58:10.945Z,1011.14
2019-02-07T03:59:10.934Z,1011.12
2019-02-07T04:00:10.924Z,1011.10
2019-02-07T04:01:10.915Z,1011.05
2019-02-07T04:02:10.917Z,1011.07
2019-02-07T04:03:10.898Z,1011.06
2019-02-07T04:04:10.885Z,1011.01
2019-02-07T04:05:10.871Z,1011.06
2019-02-07T04:06:10.855Z,1011.04
2019-02-07T04:07:10.863Z,1011.03
2019-02-07T04:08:10.839Z,1011.01
2019-02-07T04:09:10.825Z,1011.02
2019-02-07T04:10:10.815Z,1011.05
2019-02-07T04:11:10.807Z,1011.06
2019-02-07T04:12:10.819Z,1011.03
2019-02-07T04:13:10.785Z,1011.03
2019-02-07T04:14:10.773Z,1011.02
2019-02-07T04:15:10.761Z,1011.03
2019-02-07T04:16:15.264Z,1010.96
2019-02-07T04:17:10.757Z,1011.03
2019-02-07T04:18:10.737Z,1011.01
2019-02-07T04:19:10.719Z,1010.96
2019-02-07T04:20:10.719Z,1010.97
2019-02-07T04:21:10.703Z,1010.97
2019-02-07T04:22:10.708Z,1010.99
2019-02-07T04:23:10.681Z,1010.99
2019-02-07T04:24:10.673Z,1010.97
2019-02-07T04:25:10.669Z,1010.93
2019-02-07T04:26:10.657Z,1010.94
2019-02-07T04:27:10.651Z,1010.95
2019-02-07T04:28:10.632Z,1010.91
2019-02-07T04:29:10.619Z,1010.95
2019-02-07T04:30:10.611Z,1010.87
2019-02-07T04:31:10.609Z,1010.89
2019-02-07T04:32:10.610Z,1010.78
2019-02-07T04:33:10.577Z,1010.76
2019-02-07T04:34:10.561Z,1010.72
2019-02-07T04:35:10.560Z,1010.71
2019-02-07T04:36:10.548Z,1010.68
2019-02-07T04:37:10.547Z,1010.68
2019-02-07T04:38:10.522Z,1010.63
2019-02-07T04:39:10.516Z,1010.62
2019-02-07T04:40:12.369Z,1010.62
2019-02-07T04:41:10.505Z,1010.65
2019-02-07T04:42:10.496Z,1010.59
2019-02-07T04:43:10.471Z,1010.65
2019-02-07T04:44:10.463Z,1010.52
2019-02-07T04:45:10.454Z,1010.51
2019-02-07T04:46:10.440Z,1010.45
2019-02-07T04:47:10.442Z,1010.47
2019-02-07T04:48:10.424Z,1010.48
2019-02-07T04:49:10.407Z,1010.48
2019-02-07T04:50:10.397Z,1010.49
2019-02-07T04:51:10.387Z,1010.45
2019-02-07T04:52:10.395Z,1010.43
2019-02-07T04:53:10.369Z,1010.36
2019-02-07T04:54:10.356Z,1010.36
2019-02-07T04:55:10.347Z,1010.38
2019-02-07T04:56:10.344Z,1010.34
2019-02-07T04:57:10.324Z,1010.32
2019-02-07T04:58:10.333Z,1010.37
2019-02-07T04:59:10.306Z,1010.36
2019-02-07T05:00:10.320Z,1010.35
2019-02-07T05:01:10.291Z,1010.29
2019-02-07T05:02:10.271Z,1010.32
2019-02-07T05:03:10.275Z,1010.25
2019-02-07T05:04:10.351Z,1010.25
2019-02-07T05:05:10.245Z,1010.27
2019-02-07T05:06:10.229Z,1010.29
2019-02-07T05:07:10.225Z,1010.30
2019-02-07T05:08:10.222Z,1010.29
2019-02-07T05:09:10.201Z,1010.28
2019-02-07T05:10:10.191Z,1010.27
2019-02-07T05:11:10.183Z,1010.20
2019-02-07T05:12:10.270Z,1010.16
2019-02-07T05:13:10.175Z,1010.15
2019-02-07T05:14:10.151Z,1010.18
2019-02-07T05:15:10.139Z,1010.20
2019-02-07T05:16:10.133Z,1010.18
2019-02-07T05:17:10.116Z,1010.18
2019-02-07T05:18:10.122Z,1010.16
2019-02-07T05:19:10.098Z,1010.12
2019-02-07T05:20:10.092Z,1010.12
2019-02-07T05:21:10.076Z,1010.11
2019-02-07T05:22:10.065Z,1010.08
2019-02-07T05:23:10.090Z,1010.07
2019-02-07T05:24:10.049Z,1010.00
2019-02-07T05:25:10.053Z,1009.99
2019-02-07T05:26:10.031Z,1009.93
2019-02-07T05:27:10.008Z,1009.97
2019-02-07T05:28:10.022Z,1009.98
2019-02-07T05:29:09.989Z,1010.05
2019-02-07T05:30:09.984Z,1010.08
2019-02-07T05:31:09.972Z,1010.06
2019-02-07T05:32:09.956Z,1010.00
2019-02-07T05:33:09.948Z,1009.95
2019-02-07T05:34:09.951Z,1009.93
2019-02-07T05:35:09.931Z,1009.95
2019-02-07T05:36:09.921Z,1009.92
2019-02-07T05:37:09.916Z,1009.95
2019-02-07T05:38:09.899Z,1009.91
2019-02-07T05:39:09.906Z,1009.96
2019-02-07T05:40:09.880Z,1009.96
2019-02-07T05:41:09.867Z,1009.94
2019-02-07T05:42:09.851Z,1009.93
2019-02-07T05:43:09.843Z,1009.86
2019-02-07T05:44:09.850Z,1009.88
2019-02-07T05:45:09.822Z,1009.82
2019-02-07T05:46:09.816Z,1009.78
2019-02-07T05:47:09.802Z,1009.78
2019-02-07T05:48:09.796Z,1009.90
2019-02-07T05:49:09.822Z,1009.86
2019-02-07T05:50:09.773Z,1009.84
2019-02-07T05:51:09.759Z,1009.87
2019-02-07T05:52:09.748Z,1009.91
2019-02-07T05:53:09.741Z,1009.87
2019-02-07T05:54:09.764Z,1009.87
2019-02-07T05:55:09.721Z,1009.85
2019-02-07T05:56:09.704Z,1009.81
2019-02-07T05:57:09.696Z,1009.82
2019-02-07T05:58:09.682Z,1009.78
2019-02-07T05:59:09.679Z,1009.81
2019-02-07T06:00:09.680Z,1009.78
2019-02-07T06:01:09.654Z,1009.76
2019-02-07T06:02:09.650Z,1009.75
2019-02-07T06:03:09.640Z,1009.75
2019-02-07T06:04:09.634Z,1009.73
2019-02-07T06:05:09.633Z,1009.74
2019-02-07T06:06:09.602Z,1009.76
2019-02-07T06:07:09.597Z,1009.77
2019-02-07T06:08:09.580Z,1009.79
2019-02-07T06:09:09.572Z,1009.77
2019-02-07T06:10:09.576Z,1009.73
2019-02-07T06:11:09.550Z,1009.71
2019-02-07T06:12:09.536Z,1009.66
2019-02-07T06:13:09.540Z,1009.68
2019-02-07T06:14:09.518Z,1009.65
2019-02-07T06:15:09.520Z,1009.64
2019-02-07T06:16:09.502Z,1009.67
2019-02-07T06:17:09.488Z,1009.62
2019-02-07T06:18:09.476Z,1009.57
2019-02-07T06:19:09.466Z,1009.59
2019-02-07T06:20:09.490Z,1009.51
2019-02-07T06:21:09.442Z,1009.57
2019-02-07T06:22:09.433Z,1009.51
2019-02-07T06:23:09.427Z,1009.49
2019-02-07T06:24:09.414Z,1009.47
2019-02-07T06:25:09.404Z,1009.45
2019-02-07T06:26:09.407Z,1009.46
2019-02-07T06:27:09.384Z,1009.53
2019-02-07T06:28:09.375Z,1009.46
2019-02-07T06:29:09.372Z,1009.43
2019-02-07T06:30:09.355Z,1009.44
2019-02-07T06:31:09.355Z,1009.41
2019-02-07T06:32:09.328Z,1009.46
2019-02-07T06:33:09.318Z,1009.48
2019-02-07T06:34:09.309Z,1009.44
2019-02-07T06:35:09.299Z,1009.46
2019-02-07T06:36:09.313Z,1009.45
2019-02-07T06:37:09.280Z,1009.47
2019-02-07T06:38:09.270Z,1009.46
2019-02-07T06:39:09.263Z,1009.42
2019-02-07T06:40:09.247Z,1009.35
2019-02-07T06:41:09.249Z,1009.39
2019-02-07T06:42:09.228Z,1009.31
2019-02-07T06:43:09.221Z,1009.30
2019-02-07T06:44:09.209Z,1009.30
2019-02-07T06:45:09.192Z,1009.24
2019-02-07T06:46:09.209Z,1009.24
2019-02-07T06:47:13.412Z,1009.29
2019-02-07T06:48:09.166Z,1009.25
2019-02-07T06:49:09.155Z,1009.22
2019-02-07T06:50:09.145Z,1009.19
2019-02-07T06:51:09.130Z,1009.18
2019-02-07T06:52:09.135Z,1009.12
2019-02-07T06:53:11.206Z,1009.10
2019-02-07T06:54:09.100Z,1009.12
2019-02-07T06:55:09.101Z,1009.14
2019-02-07T06:56:09.084Z,1009.11
2019-02-07T06:57:09.087Z,1009.15
2019-02-07T06:58:09.066Z,1009.13
2019-02-07T06:59:09.057Z,1009.16
2019-02-07T07:00:09.039Z,1009.17
2019-02-07T07:01:09.040Z,1009.14
2019-02-07T07:02:09.037Z,1009.17
2019-02-07T07:03:09.021Z,1009.18
2019-02-07T07:04:08.998Z,1009.15
2019-02-07T07:05:08.990Z,1009.19
2019-02-07T07:06:08.974Z,1009.15
2019-02-07T07:07:08.992Z,1009.16
2019-02-07T07:08:08.957Z,1009.11
2019-02-07T07:09:08.948Z,1009.17
2019-02-07T07:10:08.941Z,1009.13
2019-02-07T07:11:08.935Z,1009.13
2019-02-07T07:12:08.921Z,1009.15
2019-02-07T07:13:08.921Z,1009.20
2019-02-07T07:14:08.899Z,1009.17
2019-02-07T07:15:08.885Z,1009.16
2019-02-07T07:16:08.874Z,1009.17
2019-02-07T07:17:08.863Z,1009.15
2019-02-07T07:18:08.867Z,1009.14
2019-02-07T07:19:08.842Z,1009.13
2019-02-07T07:20:08.829Z,1009.15
2019-02-07T07:21:08.820Z,1009.18
2019-02-07T07:22:08.813Z,1009.15
2019-02-07T07:23:08.820Z,1009.18
2019-02-07T07:24:08.794Z,1009.18
2019-02-07T07:25:08.778Z,1009.14
2019-02-07T07:26:09.508Z,1009.18
2019-02-07T07:27:08.777Z,1009.24
2019-02-07T07:28:08.768Z,1009.20
2019-02-07T07:29:08.740Z,1009.20
2019-02-07T07:30:08.732Z,1009.19
2019-02-07T07:31:08.723Z,1009.14
2019-02-07T07:32:08.707Z,1009.16
2019-02-07T07:33:08.728Z,1009.17
2019-02-07T07:34:08.691Z,1009.14
2019-02-07T07:35:08.681Z,1009.19
2019-02-07T07:36:08.669Z,1009.15
2019-02-07T07:37:08.655Z,1009.12
2019-02-07T07:38:08.645Z,1009.09
2019-02-07T07:39:08.659Z,1009.14
2019-02-07T07:40:08.622Z,1009.11
2019-02-07T07:41:08.615Z,1009.06
2019-02-07T07:42:08.606Z,1009.01
2019-02-07T07:43:08.593Z,1008.97
2019-02-07T07:44:08.610Z,1008.93
2019-02-07T07:45:08.580Z,1008.95
2019-02-07T07:46:08.560Z,1008.82
2019-02-07T07:47:08.552Z,1008.87
2019-02-07T07:48:08.542Z,1008.82
2019-02-07T07:49:10.485Z,1008.86
2019-02-07T07:50:08.523Z,1008.82
2019-02-07T07:51:08.507Z,1008.82
2019-02-07T07:52:08.502Z,1008.82
2019-02-07T07:53:08.489Z,1008.73
2019-02-07T07:54:08.497Z,1008.68
2019-02-07T07:55:08.561Z,1008.71
2019-02-07T07:56:08.461Z,1008.69
2019-02-07T07:57:08.452Z,1008.63
2019-02-07T07:58:08.437Z,1008.66
2019-02-07T07:59:08.459Z,1008.68
2019-02-07T08:00:08.415Z,1008.67
2019-02-07T08:01:08.409Z,1008.61
2019-02-07T08:02:08.394Z,1008.60
2019-02-07T08:03:08.386Z,1008.58
2019-02-07T08:04:08.392Z,1008.58
2019-02-07T08:05:08.362Z,1008.66
2019-02-07T08:06:08.354Z,1008.61
2019-02-07T08:07:08.346Z,1008.65
2019-02-07T08:08:08.336Z,1008.63
2019-02-07T08:09:08.341Z,1008.56
2019-02-07T08:10:08.316Z,1008.56
2019-02-07T08:11:08.301Z,1008.62
2019-02-07T08:12:08.294Z,1008.61
2019-02-07T08:13:08.285Z,1008.60
2019-02-07T08:14:08.298Z,1008.58
2019-02-07T08:15:08.262Z,1008.62
2019-02-07T08:16:08.250Z,1008.60
2019-02-07T08:17:08.240Z,1008.57
2019-02-07T08:18:08.231Z,1008.56
2019-02-07T08:19:08.223Z,1008.58
2019-02-07T08:20:08.223Z,1008.55
2019-02-07T08:21:08.199Z,1008.57
2019-02-07T08:22:08.187Z,1008.45
2019-02-07T08:23:08.177Z,1008.45
2019-02-07T08:24:08.171Z,1008.43
2019-02-07T08:25:08.172Z,1008.43
2019-02-07T08:26:08.152Z,1008.45
2019-02-07T08:27:08.136Z,1008.43
2019-02-07T08:28:08.123Z,1008.42
2019-02-07T08:29:08.121Z,1008.42
2019-02-07T08:30:08.136Z,1008.38
2019-02-07T08:31:08.098Z,1008.37
2019-02-07T08:32:08.081Z,1008.33
2019-02-07T08:33:08.077Z,1008.34
2019-02-07T08:34:08.073Z,1008.37
2019-02-07T08:35:08.064Z,1008.29
2019-02-07T08:36:08.055Z,1008.29
2019-02-07T08:37:08.035Z,1008.25
2019-02-07T08:38:08.029Z,1008.24
2019-02-07T08:39:08.015Z,1008.23
2019-02-07T08:40:08.024Z,1008.24
2019-02-07T08:41:07.992Z,1008.19
2019-02-07T08:42:07.978Z,1008.18
2019-02-07T08:43:07.970Z,1008.13
2019-02-07T08:44:13.164Z,1008.14
2019-02-07T08:45:08.982Z,1008.13
2019-02-07T08:46:07.937Z,1008.11
2019-02-07T08:47:07.928Z,1008.09
2019-02-07T08:48:07.918Z,1008.07
2019-02-07T08:49:07.914Z,1008.01
2019-02-07T08:50:07.900Z,1008.04
2019-02-07T08:51:07.905Z,1007.94
2019-02-07T08:52:07.877Z,1007.92
2019-02-07T08:53:07.876Z,1007.95
2019-02-07T08:54:07.856Z,1007.86
2019-02-07T08:55:07.844Z,1007.89
2019-02-07T08:56:07.854Z,1007.89
2019-02-07T08:57:07.831Z,1007.86
2019-02-07T08:58:07.811Z,1007.85
2019-02-07T08:59:07.802Z,1007.83
2019-02-07T09:00:07.792Z,1007.80
2019-02-07T09:01:07.807Z,1007.84
2019-02-07T09:02:07.770Z,1007.74
2019-02-07T09:03:07.764Z,1007.71
2019-02-07T09:04:07.751Z,1007.76
2019-02-07T09:05:07.749Z,1007.70
2019-02-07T09:06:07.749Z,1007.71
2019-02-07T09:07:07.726Z,1007.66
2019-02-07T09:08:07.715Z,1007.71
2019-02-07T09:09:07.704Z,1007.59
2019-02-07T09:10:07.691Z,1007.64
2019-02-07T09:11:07.709Z,1007.62
2019-02-07T09:12:07.665Z,1007.60
2019-02-07T09:13:07.654Z,1007.54
2019-02-07T09:14:07.650Z,1007.54
2019-02-07T09:15:07.637Z,1007.59
2019-02-07T09:16:07.629Z,1007.57
2019-02-07T09:17:07.630Z,1007.51
2019-02-07T09:18:10.295Z,1007.53
2019-02-07T09:19:07.595Z,1007.49
2019-02-07T09:20:07.586Z,1007.46
2019-02-07T09:21:07.576Z,1007.52
2019-02-07T09:22:07.591Z,1007.48
2019-02-07T09:23:07.557Z,1007.48
2019-02-07T09:24:07.547Z,1007.52
2019-02-07T09:25:07.536Z,1007.48
2019-02-07T09:26:07.530Z,1007.46
2019-02-07T09:27:07.525Z,1007.48
2019-02-07T09:28:07.500Z,1007.54
2019-02-07T09:29:07.494Z,1007.55
2019-02-07T09:30:07.483Z,1007.64
2019-02-07T09:31:07.475Z,1007.56
2019-02-07T09:32:07.480Z,1007.53
2019-02-07T09:33:07.450Z,1007.52
2019-02-07T09:34:07.448Z,1007.53
2019-02-07T09:35:07.430Z,1007.43
2019-02-07T09:36:09.920Z,1007.54
2019-02-07T09:37:07.444Z,1007.48
2019-02-07T09:38:07.397Z,1007.44
2019-02-07T09:39:07.385Z,1007.42
2019-02-07T09:40:07.373Z,1007.41
2019-02-07T09:41:07.368Z,1007.35
2019-02-07T09:42:07.354Z,1007.35
2019-02-07T09:43:07.375Z,1007.36
2019-02-07T09:44:07.335Z,1007.35
2019-02-07T09:45:07.327Z,1007.33
2019-02-07T09:46:07.327Z,1007.24
2019-02-07T09:47:07.307Z,1007.27
2019-02-07T09:48:07.307Z,1007.27
2019-02-07T09:49:09.072Z,1007.29
2019-02-07T09:50:07.278Z,1007.31
2019-02-07T09:51:07.260Z,1007.37
2019-02-07T09:52:07.254Z,1007.40
2019-02-07T09:53:07.256Z,1007.38
2019-02-07T09:54:07.237Z,1007.36
2019-02-07T09:55:07.219Z,1007.33
2019-02-07T09:56:07.214Z,1007.31
2019-02-07T09:57:07.201Z,1007.33
2019-02-07T09:58:07.213Z,1007.26
2019-02-07T09:59:07.182Z,1007.25
2019-02-07T10:00:07.175Z,1007.30
2019-02-07T10:01:07.160Z,1007.36
2019-02-07T10:02:07.146Z,1007.33
2019-02-07T10:03:07.146Z,1007.33
2019-02-07T10:04:07.151Z,1007.40
2019-02-07T10:05:07.130Z,1007.39
2019-02-07T10:06:07.106Z,1007.43
2019-02-07T10:07:07.101Z,1007.41
2019-02-07T10:08:07.086Z,1007.38
2019-02-07T10:09:07.098Z,1007.35
2019-02-07T10:10:07.067Z,1007.37
2019-02-07T10:11:07.056Z,1007.29
2019-02-07T10:12:07.054Z,1007.22
2019-02-07T10:13:07.034Z,1007.17
2019-02-07T10:14:07.041Z,1007.16
2019-02-07T10:15:07.678Z,1007.12
2019-02-07T10:16:07.003Z,1007.15
2019-02-07T10:17:06.997Z,1007.11
2019-02-07T10:18:06.986Z,1007.08
2019-02-07T10:19:06.998Z,1007.09
2019-02-07T10:20:06.964Z,1007.07
2019-02-07T10:21:06.951Z,1007.09
2019-02-07T10:22:06.941Z,1007.05
2019-02-07T10:23:06.937Z,1007.08
2019-02-07T10:24:06.936Z,1007.08
2019-02-07T10:25:06.917Z,1006.97
2019-02-07T10:26:06.899Z,1006.93
2019-02-07T10:27:06.892Z,1007.00
2019-02-07T10:28:06.878Z,1007.02
2019-02-07T10:29:06.890Z,1007.00
2019-02-07T10:30:06.860Z,1006.97
2019-02-07T10:31:06.849Z,1006.96
2019-02-07T10:32:06.839Z,1006.92
2019-02-07T10:33:06.832Z,1006.96
2019-02-07T10:34:06.812Z,1007.01
2019-02-07T10:35:06.827Z,1006.98
2019-02-07T10:36:06.797Z,1006.92
2019-02-07T10:37:06.782Z,1006.94
2019-02-07T10:38:06.775Z,1006.93
2019-02-07T10:39:06.764Z,1006.96
2019-02-07T10:40:06.769Z,1007.03
2019-02-07T10:41:06.746Z,1006.89
2019-02-07T10:42:06.735Z,1006.84
2019-02-07T10:43:06.723Z,1006.84
2019-02-07T10:44:06.710Z,1006.79
2019-02-07T10:45:06.738Z,1006.86
2019-02-07T10:46:06.693Z,1006.83
2019-02-07T10:47:06.680Z,1006.75
2019-02-07T10:48:06.675Z,1006.72
2019-02-07T10:49:06.664Z,1006.67
2019-02-07T10:50:06.681Z,1006.62
2019-02-07T10:51:06.642Z,1006.60
2019-02-07T10:52:06.625Z,1006.65
2019-02-07T10:53:06.620Z,1006.56
2019-02-07T10:54:06.605Z,1006.54
2019-02-07T10:55:06.595Z,1006.57
2019-02-07T10:56:06.597Z,1006.53
2019-02-07T10:57:06.574Z,1006.48
2019-02-07T10:58:06.565Z,1006.47
2019-02-07T10:59:06.553Z,1006.46
2019-02-07T11:00:06.544Z,1006.48
2019-02-07T11:01:06.548Z,1006.43
2019-02-07T11:02:06.523Z,1006.38
2019-02-07T11:03:06.516Z,1006.38
2019-02-07T11:04:06.504Z,1006.37
2019-02-07T11:05:06.493Z,1006.36
2019-02-07T11:06:06.497Z,1006.40
2019-02-07T11:07:06.468Z,1006.35
2019-02-07T11:08:06.463Z,1006.40
2019-02-07T11:09:06.446Z,1006.36
2019-02-07T11:10:06.439Z,1006.35
2019-02-07T11:11:06.456Z,1006.35
2019-02-07T11:12:06.417Z,1006.34
2019-02-07T11:13:06.407Z,1006.31
2019-02-07T11:14:06.408Z,1006.28
2019-02-07T11:15:06.386Z,1006.23
2019-02-07T11:16:06.382Z,1006.20
2019-02-07T11:17:06.429Z,1006.15
2019-02-07T11:18:06.360Z,1006.22
2019-02-07T11:19:06.348Z,1006.16
2019-02-07T11:20:06.351Z,1006.14
2019-02-07T11:21:06.340Z,1006.08
2019-02-07T11:22:06.332Z,1006.05
2019-02-07T11:23:06.305Z,1005.99
2019-02-07T11:24:06.292Z,1006.00
2019-02-07T11:25:06.297Z,1006.02
2019-02-07T11:26:06.275Z,1005.96
2019-02-07T11:27:06.279Z,1005.96
2019-02-07T11:28:10.783Z,1005.91
2019-02-07T11:29:06.241Z,1005.82
2019-02-07T11:30:06.230Z,1005.87
2019-02-07T11:31:06.222Z,1005.80
2019-02-07T11:32:06.232Z,1005.74
2019-02-07T11:33:06.212Z,1005.68
2019-02-07T11:34:06.187Z,1005.62
2019-02-07T11:35:06.179Z,1005.81
2019-02-07T11:36:06.173Z,1005.67
2019-02-07T11:37:06.180Z,1005.68
2019-02-07T11:38:06.151Z,1005.71
2019-02-07T11:39:06.139Z,1005.72
2019-02-07T11:40:06.131Z,1005.71
2019-02-07T11:41:06.113Z,1005.70
2019-02-07T11:42:06.125Z,1005.74
2019-02-07T11:43:06.101Z,1005.68
2019-02-07T11:44:06.084Z,1005.72
2019-02-07T11:45:06.138Z,1005.74
2019-02-07T11:46:06.063Z,1005.72
2019-02-07T11:47:07.090Z,1005.73
2019-02-07T11:48:06.058Z,1005.60
2019-02-07T11:49:07.177Z,1005.55
2019-02-07T11:50:06.025Z,1005.48
2019-02-07T11:51:06.019Z,1005.52
2019-02-07T11:52:06.000Z,1005.63
2019-02-07T11:53:06.008Z,1005.62
2019-02-07T11:54:05.982Z,1005.56
2019-02-07T11:55:05.989Z,1005.64
2019-02-07T11:56:05.967Z,1005.77
2019-02-07T11:57:05.987Z,1005.63
2019-02-07T11:58:05.961Z,1005.62
2019-02-07T11:59:05.931Z,1005.70
2019-02-07T12:00:05.915Z,1005.72
2019-02-07T12:01:05.908Z,1005.76
2019-02-07T12:02:09.094Z,1005.76
2019-02-07T12:03:05.897Z,1005.71
2019-02-07T12:04:05.875Z,1005.66
2019-02-07T12:05:05.867Z,1005.65